Agia Eleousa — SX3933 — position and weather

sailwx.info

Track history (hours):
 
Tides and Currents Weather Stations Pressure Air Temp Water Temp Dewpoint Dewpoint Depression Visibility Wind Speed Wind Dir Waves Ship Positions

Agia Eleousa

Last reported at 2017-Nov-18 06:28 UTC. Time now 2017-Nov-18 06:47 UTC.
Position N 40°52' E 025°13'.

Length 19 m.

Type: Fishing. MMSI: 237063000.

Date/timePositionNaut miles runAvg speedWind from/ knotsBaromVisibWave heightAir tempDewpointWater temp
2017-Nov-18 06:28N 40°52' E 025°13'2 2.5
2017-Nov-18 05:51N 40°52' E 025°11'1 2.5
2017-Nov-18 05:28N 40°52' E 025°10'1 2.4
2017-Nov-18 05:00N 40°53' E 025°08'1 2.5
2017-Nov-18 04:30N 40°53' E 025°07'1 2.7
2017-Nov-18 03:57N 40°54' E 025°05'  
2017-Nov-15 11:55N 40°58' E 025°07'2 4.0
2017-Nov-15 11:30N 40°56' E 025°06'3 5.4
2017-Nov-15 11:00N 40°54' E 025°04'1 2.2
2017-Nov-15 10:30N 40°54' E 025°05'1 2.5
2017-Nov-15 09:59N 40°53' E 025°06'1 2.6
2017-Nov-15 09:30N 40°53' E 025°08'4 2.6
2017-Nov-15 07:58N 40°52' E 025°13'0 0.3
2017-Nov-15 07:18N 40°52' E 025°13'1 2.3
2017-Nov-15 06:53N 40°52' E 025°12'2 2.2
2017-Nov-15 06:10N 40°52' E 025°10'0 2.2
2017-Nov-15 05:59N 40°52' E 025°09'4 2.3
2017-Nov-15 04:22N 40°53' E 025°04'1 2.8
2017-Nov-15 04:00N 40°53' E 025°03'1 1.4
2017-Nov-15 03:30N 40°53' E 025°02'1 2.7
2017-Nov-15 02:59N 40°54' E 025°04'1 2.5
2017-Nov-15 02:29N 40°53' E 025°05'1 2.6
2017-Nov-15 02:00N 40°53' E 025°07'1 2.6
2017-Nov-15 01:30N 40°53' E 025°09'1 2.7
2017-Nov-15 01:00N 40°53' E 025°11'0 0.6
2017-Nov-15 00:15N 40°53' E 025°10'1 2.5
2017-Nov-14 23:59N 40°53' E 025°09'1 2.5
2017-Nov-14 23:30N 40°53' E 025°08'1 2.5
2017-Nov-14 22:58N 40°53' E 025°06'1 2.5
2017-Nov-14 22:30N 40°54' E 025°04'1 2.7
2017-Nov-14 22:00N 40°53' E 025°03'0 0.7
2017-Nov-14 21:30N 40°53' E 025°02'1 2.4
2017-Nov-14 21:01N 40°53' E 025°04'1 2.5
2017-Nov-14 20:30N 40°53' E 025°06'1 2.6
2017-Nov-14 20:00N 40°53' E 025°07'1 2.6
2017-Nov-14 19:30N 40°52' E 025°09'1 2.5
2017-Nov-14 18:58N 40°52' E 025°11'2 2.3
2017-Nov-14 18:19N 40°53' E 025°13'1 2.1
2017-Nov-14 17:50N 40°53' E 025°11'1 2.5
2017-Nov-14 17:24N 40°53' E 025°10'1 2.5
2017-Nov-14 17:00N 40°53' E 025°09'1 2.5
2017-Nov-14 16:30N 40°53' E 025°07'1 2.6
2017-Nov-14 16:00N 40°53' E 025°05'0 0.3
2017-Nov-14 15:30N 40°53' E 025°05'1 1.3
2017-Nov-14 15:00N 40°53' E 025°06'1 2.7
2017-Nov-14 14:30N 40°53' E 025°08'1 2.7
2017-Nov-14 13:57N 40°52' E 025°10'1 2.8
2017-Nov-14 13:28N 40°52' E 025°12'0 0.7
2017-Nov-14 12:49N 40°52' E 025°11'1 2.5
2017-Nov-14 12:30N 40°52' E 025°10'1 2.5
2017-Nov-14 11:54N 40°53' E 025°08'1 2.5
2017-Nov-14 11:30N 40°53' E 025°07'0 0.8
2017-Nov-14 11:00N 40°53' E 025°07'1 2.1
2017-Nov-14 10:29N 40°53' E 025°05'1 3.0
2017-Nov-14 10:00N 40°53' E 025°03'1 1.6
2017-Nov-14 09:28N 40°53' E 025°04'1 2.6
2017-Nov-14 09:00N 40°53' E 025°06'1 2.6
2017-Nov-14 08:30N 40°53' E 025°08'3 1.0
2017-Nov-14 05:55N 40°52' E 025°11'1 2.6
2017-Nov-14 05:23N 40°52' E 025°09'1 2.7
2017-Nov-14 04:51N 40°52' E 025°07'1 2.6
2017-Nov-14 04:30N 40°52' E 025°06'1 2.8
2017-Nov-14 04:00N 40°53' E 025°04'5 0.2
2017-Nov-12 17:14N 40°58' E 025°07'1 1.4
2017-Nov-12 16:51N 40°57' E 025°07'3 7.7
2017-Nov-12 16:28N 40°55' E 025°05'2 2.8
2017-Nov-12 15:48N 40°53' E 025°04'1 2.6
2017-Nov-12 15:31N 40°53' E 025°05'1 2.6
2017-Nov-12 15:00N 40°52' E 025°07'1 2.5
2017-Nov-12 14:30N 40°52' E 025°08'2 0.9
2017-Nov-12 12:11N 40°52' E 025°11'1 2.5
2017-Nov-12 11:59N 40°52' E 025°10'1 2.5
2017-Nov-12 11:24N 40°52' E 025°09'1 2.6
2017-Nov-12 10:55N 40°53' E 025°07'1 2.5
2017-Nov-12 10:29N 40°53' E 025°06'1 2.6
2017-Nov-12 10:00N 40°53' E 025°04'1 1.9
2017-Nov-12 09:30N 40°53' E 025°05'1 2.5
2017-Nov-12 08:59N 40°52' E 025°07'1 2.5
2017-Nov-12 08:28N 40°52' E 025°08'4 1.5
2017-Nov-12 06:03N 40°52' E 025°13'1 2.6
2017-Nov-12 05:49N 40°52' E 025°12'1 2.5
2017-Nov-12 05:24N 40°52' E 025°11'1 2.5
2017-Nov-12 05:00N 40°52' E 025°10'1 2.4
2017-Nov-12 04:30N 40°53' E 025°08'1 2.5
2017-Nov-12 03:59N 40°53' E 025°07'1 2.5
2017-Nov-12 03:30N 40°53' E 025°05'1 1.1
2017-Nov-12 03:00N 40°53' E 025°04'1 2.2
2017-Nov-12 02:31N 40°53' E 025°06'1 2.5
2017-Nov-12 01:59N 40°53' E 025°07'1 2.5
2017-Nov-12 01:30N 40°53' E 025°09'1 2.5
2017-Nov-12 01:00N 40°53' E 025°11'1 2.5
2017-Nov-12 00:30N 40°52' E 025°12'0 0.6
2017-Nov-11 23:54N 40°53' E 025°12'1 2.5
2017-Nov-11 23:29N 40°53' E 025°11'1 2.6
2017-Nov-11 23:00N 40°53' E 025°09'1 2.7
2017-Nov-11 22:31N 40°53' E 025°07'1 2.7
2017-Nov-11 21:59N 40°53' E 025°05'1 1.0
2017-Nov-11 21:30N 40°53' E 025°05'0 0.2
2017-Nov-11 21:00N 40°53' E 025°05'1 2.2
2017-Nov-11 20:30N 40°54' E 025°06'2 2.6
2017-Nov-11 19:53N 40°53' E 025°08'1 2.6
2017-Nov-11 19:28N 40°53' E 025°10'1 2.6
2017-Nov-11 18:55N 40°53' E 025°12'1 0.9
2017-Nov-11 18:16N 40°53' E 025°12'1 2.2
2017-Nov-11 17:54N 40°53' E 025°11'1 2.5
2017-Nov-11 17:30N 40°53' E 025°10'1 2.5
2017-Nov-11 17:00N 40°53' E 025°08'1 2.6
2017-Nov-11 16:31N 40°53' E 025°06'1 2.6
2017-Nov-11 16:01N 40°53' E 025°04'1 1.2
2017-Nov-11 15:31N 40°53' E 025°04'1 2.3
2017-Nov-11 15:00N 40°53' E 025°05'6 2.3
2017-Nov-11 12:09N 40°52' E 025°14'1 2.6
2017-Nov-11 11:54N 40°52' E 025°14'3 0.5
2017-Nov-11 06:38N 40°53' E 025°11'1 2.5
2017-Nov-11 06:08N 40°53' E 025°10'1 2.6
2017-Nov-11 05:47N 40°53' E 025°08'1 2.6
2017-Nov-11 05:31N 40°53' E 025°07'1 2.6
2017-Nov-11 05:01N 40°53' E 025°06'1 2.7
2017-Nov-11 04:30N 40°53' E 025°04'1 1.6
2017-Nov-11 03:55N 40°53' E 025°03'5 0.6
2017-Nov-10 19:18N 40°58' E 025°07'8 6.1
2017-Nov-10 17:56N 40°49' E 025°07'1 1.6
2017-Nov-10 17:23N 40°50' E 025°08'2 2.7
2017-Nov-10 16:28N 40°50' E 025°12'2 0.3
2017-Nov-10 10:47N 40°52' E 025°12'1 2.6
2017-Nov-10 10:28N 40°51' E 025°11'1 2.4
2017-Nov-10 09:58N 40°51' E 025°10'1 1.4
2017-Nov-10 09:27N 40°51' E 025°10'1 2.7
2017-Nov-10 09:00N 40°51' E 025°12'1 0.3
2017-Nov-10 04:26N 40°51' E 025°14'2 2.7
2017-Nov-10 03:49N 40°50' E 025°12'1 2.7
2017-Nov-10 03:23N 40°50' E 025°10'1 2.7
2017-Nov-10 02:50N 40°50' E 025°08'1 2.7
2017-Nov-10 02:26N 40°50' E 025°07'1 2.7
2017-Nov-10 01:55N 40°50' E 025°05'1 3.0
2017-Nov-10 01:30N 40°50' E 025°03'3 5.7
2017-Nov-10 00:59N 40°53' E 025°04'1 1.2
2017-Nov-10 00:26N 40°53' E 025°05'1 2.5
2017-Nov-10 00:00N 40°53' E 025°06'1 2.5
2017-Nov-09 23:29N 40°53' E 025°08'2 2.6
2017-Nov-09 22:53N 40°53' E 025°10'1 2.6
2017-Nov-09 22:25N 40°53' E 025°11'1 2.7
2017-Nov-09 21:58N 40°52' E 025°13'0 0.5
2017-Nov-09 21:09N 40°52' E 025°12'0 2.5
2017-Nov-09 21:00N 40°52' E 025°12'1 2.4
2017-Nov-09 20:28N 40°53' E 025°10'1 2.5
2017-Nov-09 19:54N 40°53' E 025°08'1 2.5
2017-Nov-09 19:22N 40°53' E 025°06'1 3.0
2017-Nov-09 19:00N 40°53' E 025°05'0 0.9
2017-Nov-09 18:30N 40°53' E 025°06'1 2.5
2017-Nov-09 18:00N 40°53' E 025°07'2 2.5
2017-Nov-09 17:24N 40°53' E 025°09'2 2.6
2017-Nov-09 16:46N 40°53' E 025°11'1 1.9
2017-Nov-09 16:14N 40°53' E 025°12'1 2.0
2017-Nov-09 15:50N 40°52' E 025°11'1 2.6
2017-Nov-09 15:29N 40°52' E 025°10'1 2.6
2017-Nov-09 15:00N 40°53' E 025°09'1 2.6
2017-Nov-09 14:31N 40°53' E 025°07'1 2.5
2017-Nov-09 13:59N 40°53' E 025°05'1 1.4
2017-Nov-09 13:30N 40°53' E 025°04'1 2.2
2017-Nov-09 13:00N 40°53' E 025°06'1 2.6
2017-Nov-09 12:30N 40°53' E 025°08'1 2.5
2017-Nov-09 12:00N 40°53' E 025°09'2 2.6
2017-Nov-09 11:17N 40°52' E 025°12'2 4.3
2017-Nov-09 10:56N 40°51' E 025°13'1 2.1
2017-Nov-09 10:21N 40°51' E 025°14'1 0.1
2017-Nov-09 04:55N 40°52' E 025°14'2 3.1
2017-Nov-09 04:24N 40°52' E 025°12'1 2.4
2017-Nov-09 03:59N 40°53' E 025°12'1 2.4
2017-Nov-09 03:30N 40°53' E 025°11'1 2.5
2017-Nov-09 03:00N 40°53' E 025°09'1 2.6
2017-Nov-09 02:26N 40°53' E 025°07'1 2.6
2017-Nov-09 02:00N 40°53' E 025°06'1 1.5
2017-Nov-09 01:29N 40°53' E 025°05'1 2.2
2017-Nov-09 00:56N 40°53' E 025°06'1 2.6
2017-Nov-09 00:28N 40°53' E 025°08'1 2.7
2017-Nov-08 23:56N 40°52' E 025°10'1 2.8
2017-Nov-08 23:27N 40°52' E 025°11'0 0.4
2017-Nov-08 22:54N 40°52' E 025°11'1 2.5
2017-Nov-08 22:28N 40°53' E 025°10'1 2.5
2017-Nov-08 21:57N 40°53' E 025°08'1 2.6
2017-Nov-08 21:29N 40°53' E 025°07'5 1.4
2017-Nov-08 18:07N 40°58' E 025°08'0 1.9
2017-Nov-08 17:55N 40°58' E 025°07'0 1.0
2017-Nov-08 17:27N 40°57' E 025°07'4 7.8
2017-Nov-08 16:58N 40°54' E 025°10'2 2.4
2017-Nov-08 16:21N 40°53' E 025°11'1 2.5
2017-Nov-08 15:57N 40°53' E 025°10'1 2.5
2017-Nov-08 15:28N 40°53' E 025°08'1 2.5
2017-Nov-08 14:57N 40°53' E 025°06'1 2.4
2017-Nov-08 14:30N 40°53' E 025°05'1 2.6
2017-Nov-08 13:59N 40°53' E 025°03'1 1.1
2017-Nov-08 13:30N 40°53' E 025°04'1 2.2
2017-Nov-08 12:55N 40°53' E 025°06'1 2.6
2017-Nov-08 12:30N 40°53' E 025°07'1 2.6
2017-Nov-08 11:59N 40°52' E 025°09'2 2.5
2017-Nov-08 11:15N 40°52' E 025°11'0 1.6
2017-Nov-08 10:58N 40°52' E 025°12'  
Track history (hours):
 
Tides and Currents Weather Stations Pressure Air Temp Water Temp Dewpoint Dewpoint Depression Visibility Wind Speed Wind Dir Waves Ship Positions

Agia Eleousa

Last reported at 2017-Nov-18 06:28 UTC. Time now 2017-Nov-18 06:47 UTC.
Position N 40°52' E 025°13'.

Length 19 m.

Type: Fishing. MMSI: 237063000.

Date/timePositionNaut miles runAvg speedWind from/ knotsBaromVisibWave heightAir tempDewpointWater temp
2017-Nov-18 06:28N 40°52' E 025°13'2 2.5
2017-Nov-18 05:51N 40°52' E 025°11'1 2.5
2017-Nov-18 05:28N 40°52' E 025°10'1 2.4
2017-Nov-18 05:00N 40°53' E 025°08'1 2.5
2017-Nov-18 04:30N 40°53' E 025°07'1 2.7
2017-Nov-18 03:57N 40°54' E 025°05'  
2017-Nov-15 11:55N 40°58' E 025°07'2 4.0
2017-Nov-15 11:30N 40°56' E 025°06'3 5.4
2017-Nov-15 11:00N 40°54' E 025°04'1 2.2
2017-Nov-15 10:30N 40°54' E 025°05'1 2.5
2017-Nov-15 09:59N 40°53' E 025°06'1 2.6
2017-Nov-15 09:30N 40°53' E 025°08'4 2.6
2017-Nov-15 07:58N 40°52' E 025°13'0 0.3
2017-Nov-15 07:18N 40°52' E 025°13'1 2.3
2017-Nov-15 06:53N 40°52' E 025°12'2 2.2
2017-Nov-15 06:10N 40°52' E 025°10'0 2.2
2017-Nov-15 05:59N 40°52' E 025°09'4 2.3
2017-Nov-15 04:22N 40°53' E 025°04'1 2.8
2017-Nov-15 04:00N 40°53' E 025°03'1 1.4
2017-Nov-15 03:30N 40°53' E 025°02'1 2.7
2017-Nov-15 02:59N 40°54' E 025°04'1 2.5
2017-Nov-15 02:29N 40°53' E 025°05'1 2.6
2017-Nov-15 02:00N 40°53' E 025°07'1 2.6
2017-Nov-15 01:30N 40°53' E 025°09'1 2.7
2017-Nov-15 01:00N 40°53' E 025°11'0 0.6
2017-Nov-15 00:15N 40°53' E 025°10'1 2.5
2017-Nov-14 23:59N 40°53' E 025°09'1 2.5
2017-Nov-14 23:30N 40°53' E 025°08'1 2.5
2017-Nov-14 22:58N 40°53' E 025°06'1 2.5
2017-Nov-14 22:30N 40°54' E 025°04'1 2.7
2017-Nov-14 22:00N 40°53' E 025°03'0 0.7
2017-Nov-14 21:30N 40°53' E 025°02'1 2.4
2017-Nov-14 21:01N 40°53' E 025°04'1 2.5
2017-Nov-14 20:30N 40°53' E 025°06'1 2.6
2017-Nov-14 20:00N 40°53' E 025°07'1 2.6
2017-Nov-14 19:30N 40°52' E 025°09'1 2.5
2017-Nov-14 18:58N 40°52' E 025°11'2 2.3
2017-Nov-14 18:19N 40°53' E 025°13'1 2.1
2017-Nov-14 17:50N 40°53' E 025°11'1 2.5
2017-Nov-14 17:24N 40°53' E 025°10'1 2.5
2017-Nov-14 17:00N 40°53' E 025°09'1 2.5
2017-Nov-14 16:30N 40°53' E 025°07'1 2.6
2017-Nov-14 16:00N 40°53' E 025°05'0 0.3
2017-Nov-14 15:30N 40°53' E 025°05'1 1.3
2017-Nov-14 15:00N 40°53' E 025°06'1 2.7
2017-Nov-14 14:30N 40°53' E 025°08'1 2.7
2017-Nov-14 13:57N 40°52' E 025°10'1 2.8
2017-Nov-14 13:28N 40°52' E 025°12'0 0.7
2017-Nov-14 12:49N 40°52' E 025°11'1 2.5
2017-Nov-14 12:30N 40°52' E 025°10'1 2.5
2017-Nov-14 11:54N 40°53' E 025°08'1 2.5
2017-Nov-14 11:30N 40°53' E 025°07'0 0.8
2017-Nov-14 11:00N 40°53' E 025°07'1 2.1
2017-Nov-14 10:29N 40°53' E 025°05'1 3.0
2017-Nov-14 10:00N 40°53' E 025°03'1 1.6
2017-Nov-14 09:28N 40°53' E 025°04'1 2.6
2017-Nov-14 09:00N 40°53' E 025°06'1 2.6
2017-Nov-14 08:30N 40°53' E 025°08'3 1.0
2017-Nov-14 05:55N 40°52' E 025°11'1 2.6
2017-Nov-14 05:23N 40°52' E 025°09'1 2.7
2017-Nov-14 04:51N 40°52' E 025°07'1 2.6
2017-Nov-14 04:30N 40°52' E 025°06'1 2.8
2017-Nov-14 04:00N 40°53' E 025°04'5 0.2
2017-Nov-12 17:14N 40°58' E 025°07'1 1.4
2017-Nov-12 16:51N 40°57' E 025°07'3 7.7
2017-Nov-12 16:28N 40°55' E 025°05'2 2.8
2017-Nov-12 15:48N 40°53' E 025°04'1 2.6
2017-Nov-12 15:31N 40°53' E 025°05'1 2.6
2017-Nov-12 15:00N 40°52' E 025°07'1 2.5
2017-Nov-12 14:30N 40°52' E 025°08'2 0.9
2017-Nov-12 12:11N 40°52' E 025°11'1 2.5
2017-Nov-12 11:59N 40°52' E 025°10'1 2.5
2017-Nov-12 11:24N 40°52' E 025°09'1 2.6
2017-Nov-12 10:55N 40°53' E 025°07'1 2.5
2017-Nov-12 10:29N 40°53' E 025°06'1 2.6
2017-Nov-12 10:00N 40°53' E 025°04'1 1.9
2017-Nov-12 09:30N 40°53' E 025°05'1 2.5
2017-Nov-12 08:59N 40°52' E 025°07'1 2.5
2017-Nov-12 08:28N 40°52' E 025°08'4 1.5
2017-Nov-12 06:03N 40°52' E 025°13'1 2.6
2017-Nov-12 05:49N 40°52' E 025°12'1 2.5
2017-Nov-12 05:24N 40°52' E 025°11'1 2.5
2017-Nov-12 05:00N 40°52' E 025°10'1 2.4
2017-Nov-12 04:30N 40°53' E 025°08'1 2.5
2017-Nov-12 03:59N 40°53' E 025°07'1 2.5
2017-Nov-12 03:30N 40°53' E 025°05'1 1.1
2017-Nov-12 03:00N 40°53' E 025°04'1 2.2
2017-Nov-12 02:31N 40°53' E 025°06'1 2.5
2017-Nov-12 01:59N 40°53' E 025°07'1 2.5
2017-Nov-12 01:30N 40°53' E 025°09'1 2.5
2017-Nov-12 01:00N 40°53' E 025°11'1 2.5
2017-Nov-12 00:30N 40°52' E 025°12'0 0.6
2017-Nov-11 23:54N 40°53' E 025°12'1 2.5
2017-Nov-11 23:29N 40°53' E 025°11'1 2.6
2017-Nov-11 23:00N 40°53' E 025°09'1 2.7
2017-Nov-11 22:31N 40°53' E 025°07'1 2.7
2017-Nov-11 21:59N 40°53' E 025°05'1 1.0
2017-Nov-11 21:30N 40°53' E 025°05'0 0.2
2017-Nov-11 21:00N 40°53' E 025°05'1 2.2
2017-Nov-11 20:30N 40°54' E 025°06'2 2.6
2017-Nov-11 19:53N 40°53' E 025°08'1 2.6
2017-Nov-11 19:28N 40°53' E 025°10'1 2.6
2017-Nov-11 18:55N 40°53' E 025°12'1 0.9
2017-Nov-11 18:16N 40°53' E 025°12'1 2.2
2017-Nov-11 17:54N 40°53' E 025°11'1 2.5
2017-Nov-11 17:30N 40°53' E 025°10'1 2.5
2017-Nov-11 17:00N 40°53' E 025°08'1 2.6
2017-Nov-11 16:31N 40°53' E 025°06'1 2.6
2017-Nov-11 16:01N 40°53' E 025°04'1 1.2
2017-Nov-11 15:31N 40°53' E 025°04'1 2.3
2017-Nov-11 15:00N 40°53' E 025°05'6 2.3
2017-Nov-11 12:09N 40°52' E 025°14'1 2.6
2017-Nov-11 11:54N 40°52' E 025°14'3 0.5
2017-Nov-11 06:38N 40°53' E 025°11'1 2.5
2017-Nov-11 06:08N 40°53' E 025°10'1 2.6
2017-Nov-11 05:47N 40°53' E 025°08'1 2.6
2017-Nov-11 05:31N 40°53' E 025°07'1 2.6
2017-Nov-11 05:01N 40°53' E 025°06'1 2.7
2017-Nov-11 04:30N 40°53' E 025°04'1 1.6
2017-Nov-11 03:55N 40°53' E 025°03'5 0.6
2017-Nov-10 19:18N 40°58' E 025°07'8 6.1
2017-Nov-10 17:56N 40°49' E 025°07'1 1.6
2017-Nov-10 17:23N 40°50' E 025°08'2 2.7
2017-Nov-10 16:28N 40°50' E 025°12'2 0.3
2017-Nov-10 10:47N 40°52' E 025°12'1 2.6
2017-Nov-10 10:28N 40°51' E 025°11'1 2.4
2017-Nov-10 09:58N 40°51' E 025°10'1 1.4
2017-Nov-10 09:27N 40°51' E 025°10'1 2.7
2017-Nov-10 09:00N 40°51' E 025°12'1 0.3
2017-Nov-10 04:26N 40°51' E 025°14'2 2.7
2017-Nov-10 03:49N 40°50' E 025°12'1 2.7
2017-Nov-10 03:23N 40°50' E 025°10'1 2.7
2017-Nov-10 02:50N 40°50' E 025°08'1 2.7
2017-Nov-10 02:26N 40°50' E 025°07'1 2.7
2017-Nov-10 01:55N 40°50' E 025°05'1 3.0
2017-Nov-10 01:30N 40°50' E 025°03'3 5.7
2017-Nov-10 00:59N 40°53' E 025°04'1 1.2
2017-Nov-10 00:26N 40°53' E 025°05'1 2.5
2017-Nov-10 00:00N 40°53' E 025°06'1 2.5
2017-Nov-09 23:29N 40°53' E 025°08'2 2.6
2017-Nov-09 22:53N 40°53' E 025°10'1 2.6
2017-Nov-09 22:25N 40°53' E 025°11'1 2.7
2017-Nov-09 21:58N 40°52' E 025°13'0 0.5
2017-Nov-09 21:09N 40°52' E 025°12'0 2.5
2017-Nov-09 21:00N 40°52' E 025°12'1 2.4
2017-Nov-09 20:28N 40°53' E 025°10'1 2.5
2017-Nov-09 19:54N 40°53' E 025°08'1 2.5
2017-Nov-09 19:22N 40°53' E 025°06'1 3.0
2017-Nov-09 19:00N 40°53' E 025°05'0 0.9
2017-Nov-09 18:30N 40°53' E 025°06'1 2.5
2017-Nov-09 18:00N 40°53' E 025°07'2 2.5
2017-Nov-09 17:24N 40°53' E 025°09'2 2.6
2017-Nov-09 16:46N 40°53' E 025°11'1 1.9
2017-Nov-09 16:14N 40°53' E 025°12'1 2.0
2017-Nov-09 15:50N 40°52' E 025°11'1 2.6
2017-Nov-09 15:29N 40°52' E 025°10'1 2.6
2017-Nov-09 15:00N 40°53' E 025°09'1 2.6
2017-Nov-09 14:31N 40°53' E 025°07'1 2.5
2017-Nov-09 13:59N 40°53' E 025°05'1 1.4
2017-Nov-09 13:30N 40°53' E 025°04'1 2.2
2017-Nov-09 13:00N 40°53' E 025°06'1 2.6
2017-Nov-09 12:30N 40°53' E 025°08'1 2.5
2017-Nov-09 12:00N 40°53' E 025°09'2 2.6
2017-Nov-09 11:17N 40°52' E 025°12'2 4.3
2017-Nov-09 10:56N 40°51' E 025°13'1 2.1
2017-Nov-09 10:21N 40°51' E 025°14'1 0.1
2017-Nov-09 04:55N 40°52' E 025°14'2 3.1
2017-Nov-09 04:24N 40°52' E 025°12'1 2.4
2017-Nov-09 03:59N 40°53' E 025°12'1 2.4
2017-Nov-09 03:30N 40°53' E 025°11'1 2.5
2017-Nov-09 03:00N 40°53' E 025°09'1 2.6
2017-Nov-09 02:26N 40°53' E 025°07'1 2.6
2017-Nov-09 02:00N 40°53' E 025°06'1 1.5
2017-Nov-09 01:29N 40°53' E 025°05'1 2.2
2017-Nov-09 00:56N 40°53' E 025°06'1 2.6
2017-Nov-09 00:28N 40°53' E 025°08'1 2.7
2017-Nov-08 23:56N 40°52' E 025°10'1 2.8
2017-Nov-08 23:27N 40°52' E 025°11'0 0.4
2017-Nov-08 22:54N 40°52' E 025°11'1 2.5
2017-Nov-08 22:28N 40°53' E 025°10'1 2.5
2017-Nov-08 21:57N 40°53' E 025°08'1 2.6
2017-Nov-08 21:29N 40°53' E 025°07'5 1.4
2017-Nov-08 18:07N 40°58' E 025°08'0 1.9
2017-Nov-08 17:55N 40°58' E 025°07'0 1.0
2017-Nov-08 17:27N 40°57' E 025°07'4 7.8
2017-Nov-08 16:58N 40°54' E 025°10'2 2.4
2017-Nov-08 16:21N 40°53' E 025°11'1 2.5
2017-Nov-08 15:57N 40°53' E 025°10'1 2.5
2017-Nov-08 15:28N 40°53' E 025°08'1 2.5
2017-Nov-08 14:57N 40°53' E 025°06'1 2.4
2017-Nov-08 14:30N 40°53' E 025°05'1 2.6
2017-Nov-08 13:59N 40°53' E 025°03'1 1.1
2017-Nov-08 13:30N 40°53' E 025°04'1 2.2
2017-Nov-08 12:55N 40°53' E 025°06'1 2.6
2017-Nov-08 12:30N 40°53' E 025°07'1 2.6
2017-Nov-08 11:59N 40°52' E 025°09'2 2.5
2017-Nov-08 11:15N 40°52' E 025°11'0 1.6
2017-Nov-08 10:58N 40°52' E 025°12'  

Dump ship's entire track history